createdAt,value
2023-03-03T00:00:47.484Z,68.93
2023-03-03T00:03:16.831Z,74.55
2023-03-03T00:05:44.174Z,73.97
2023-03-03T00:08:11.663Z,76.32
2023-03-03T00:10:39.258Z,75.18
2023-03-03T00:13:14.379Z,72.80
2023-03-03T00:15:41.567Z,69.40
2023-03-03T00:18:19.633Z,75.60
2023-03-03T00:20:50.727Z,73.13
2023-03-03T00:23:21.566Z,74.72
2023-03-03T00:25:50.426Z,69.25
2023-03-03T00:28:28.902Z,74.03
2023-03-03T00:31:00.815Z,82.18
2023-03-03T00:33:32.943Z,66.30
2023-03-03T00:36:18.422Z,77.45
2023-03-03T00:38:45.462Z,70.57
2023-03-03T00:41:17.388Z,82.13
2023-03-03T00:43:44.449Z,73.05
2023-03-03T00:46:16.271Z,83.45
2023-03-03T00:48:44.554Z,73.95
2023-03-03T00:51:31.950Z,73.88
2023-03-03T00:53:59.595Z,76.47
2023-03-03T00:56:27.828Z,72.32
2023-03-03T00:58:54.888Z,76.05
2023-03-03T01:01:22.607Z,76.72
2023-03-03T01:03:49.680Z,69.85
2023-03-03T01:06:16.908Z,74.93
2023-03-03T01:08:43.947Z,70.55
2023-03-03T01:11:14.202Z,75.45
2023-03-03T01:13:42.258Z,73.75
2023-03-03T01:16:09.486Z,70.43
2023-03-03T01:18:37.153Z,72.68
2023-03-03T01:21:05.488Z,76.10
2023-03-03T01:23:32.572Z,80.57
2023-03-03T01:25:59.608Z,76.20
2023-03-03T01:28:26.632Z,76.68
2023-03-03T01:30:53.767Z,83.72
2023-03-03T01:33:20.832Z,71.90
2023-03-03T01:35:48.569Z,73.70
2023-03-03T01:38:16.090Z,74.78
2023-03-03T01:40:43.162Z,81.95
2023-03-03T01:43:12.859Z,73.60
2023-03-03T01:45:49.027Z,78.82
2023-03-03T01:48:18.792Z,77.05
2023-03-03T01:50:49.044Z,74.63
2023-03-03T01:53:20.566Z,77.28
2023-03-03T01:55:48.718Z,73.90
2023-03-03T01:58:28.286Z,73.97
2023-03-03T02:00:59.601Z,73.15
2023-03-03T02:03:27.927Z,69.93
2023-03-03T02:05:57.777Z,73.78
2023-03-03T02:08:28.513Z,75.25
2023-03-03T02:10:55.558Z,75.45
2023-03-03T02:13:22.561Z,77.88
2023-03-03T02:15:49.624Z,71.03
2023-03-03T02:18:19.632Z,78.47
2023-03-03T02:21:05.340Z,77.03
2023-03-03T02:23:38.466Z,74.45
2023-03-03T02:26:13.593Z,74.55
2023-03-03T02:28:41.087Z,73.85
2023-03-03T02:31:13.565Z,79.70
2023-03-03T02:33:41.846Z,72.25
2023-03-03T02:36:12.721Z,87.57
2023-03-03T02:38:40.225Z,78.43
2023-03-03T02:41:10.071Z,76.88
2023-03-03T02:43:42.179Z,76.28
2023-03-03T02:46:09.237Z,84.07
2023-03-03T02:48:36.272Z,82.60
2023-03-03T02:51:03.272Z,74.25
2023-03-03T02:53:30.299Z,72.25
2023-03-03T02:55:57.305Z,73.85
2023-03-03T02:58:24.345Z,75.38
2023-03-03T03:00:51.396Z,71.93
2023-03-03T03:03:18.435Z,78.40
2023-03-03T03:05:45.478Z,70.93
2023-03-03T03:08:12.466Z,65.80
2023-03-03T03:10:39.765Z,71.97
2023-03-03T03:13:06.884Z,70.90
2023-03-03T03:15:35.441Z,67.03
2023-03-03T03:18:02.490Z,71.47
2023-03-03T03:20:29.504Z,69.72
2023-03-03T03:22:56.574Z,69.82
2023-03-03T03:25:23.625Z,66.40
2023-03-03T03:27:50.640Z,68.82
2023-03-03T03:30:20.576Z,68.22
2023-03-03T03:32:48.055Z,65.55
2023-03-03T03:35:17.225Z,66.18
2023-03-03T03:37:44.912Z,61.60
2023-03-03T03:40:12.318Z,64.20
2023-03-03T03:42:39.569Z,64.50
2023-03-03T03:45:06.959Z,61.58
2023-03-03T03:47:33.966Z,66.47
2023-03-03T03:50:01.006Z,65.78
2023-03-03T03:52:28.005Z,58.35
2023-03-03T03:54:54.999Z,64.00
2023-03-03T03:57:22.012Z,64.22
2023-03-03T03:59:50.347Z,65.72
2023-03-03T04:02:17.462Z,64.43
2023-03-03T04:04:44.613Z,58.92
2023-03-03T04:07:11.791Z,63.40
2023-03-03T04:09:38.925Z,62.42
2023-03-03T04:12:06.020Z,61.83
2023-03-03T04:14:33.120Z,61.60
2023-03-03T04:17:00.189Z,65.13
2023-03-03T04:19:27.173Z,61.35
2023-03-03T04:21:54.192Z,59.13
2023-03-03T04:24:21.226Z,62.00
2023-03-03T04:26:48.283Z,67.65
2023-03-03T04:29:15.328Z,65.40
2023-03-03T04:31:42.331Z,60.72
2023-03-03T04:34:09.488Z,63.35
2023-03-03T04:36:36.501Z,60.85
2023-03-03T04:39:03.573Z,61.22
2023-03-03T04:41:30.665Z,63.33
2023-03-03T04:43:57.689Z,63.83
2023-03-03T04:46:24.770Z,68.13
2023-03-03T04:48:52.384Z,66.32
2023-03-03T04:51:19.452Z,63.83
2023-03-03T04:53:46.502Z,65.45
2023-03-03T04:56:13.503Z,73.25
2023-03-03T04:58:40.647Z,66.47
2023-03-03T05:01:07.916Z,66.53
2023-03-03T05:03:35.009Z,58.17
2023-03-03T05:06:02.014Z,60.60
2023-03-03T05:08:29.024Z,63.47
2023-03-03T05:10:56.201Z,61.55
2023-03-03T05:13:23.528Z,67.85
2023-03-03T05:15:51.706Z,65.28
2023-03-03T05:18:21.905Z,63.60
2023-03-03T05:20:49.845Z,63.88
2023-03-03T05:23:17.069Z,60.08
2023-03-03T05:25:44.100Z,65.57
2023-03-03T05:28:11.747Z,63.65
2023-03-03T05:30:38.823Z,67.28
2023-03-03T05:33:06.264Z,61.97
2023-03-03T05:35:33.746Z,62.90
2023-03-03T05:38:00.804Z,60.60
2023-03-03T05:40:28.235Z,67.70
2023-03-03T05:42:55.292Z,61.10
2023-03-03T05:45:24.264Z,65.00
2023-03-03T05:47:52.199Z,67.88
2023-03-03T05:50:20.222Z,66.00
2023-03-03T05:52:50.861Z,68.63
2023-03-03T05:55:18.240Z,66.85
2023-03-03T05:57:45.344Z,75.35
2023-03-03T06:00:13.127Z,70.20
2023-03-03T06:02:40.472Z,70.55
2023-03-03T06:05:08.352Z,64.75
2023-03-03T06:07:35.469Z,68.43
2023-03-03T06:10:02.859Z,65.70
2023-03-03T06:12:29.890Z,66.63
2023-03-03T06:14:57.054Z,65.25
2023-03-03T06:17:24.053Z,77.78
2023-03-03T06:19:51.070Z,66.32
2023-03-03T06:22:18.085Z,64.22
2023-03-03T06:24:45.212Z,72.57
2023-03-03T06:27:12.248Z,67.15
2023-03-03T06:29:39.294Z,68.63
2023-03-03T06:32:06.446Z,66.50
2023-03-03T06:34:33.558Z,73.32
2023-03-03T06:37:00.633Z,70.78
2023-03-03T06:39:28.116Z,74.78
2023-03-03T06:41:55.106Z,72.70
2023-03-03T06:44:22.140Z,71.72
2023-03-03T06:46:49.938Z,74.47
2023-03-03T06:49:17.125Z,72.70
2023-03-03T06:51:46.181Z,74.50
2023-03-03T06:54:17.529Z,77.20
2023-03-03T06:56:45.442Z,78.10
2023-03-03T06:59:14.273Z,77.05
2023-03-03T07:01:41.911Z,72.07
2023-03-03T07:04:16.409Z,69.55
2023-03-03T07:06:43.512Z,74.90
2023-03-03T07:09:16.044Z,78.90
2023-03-03T07:11:46.209Z,74.25
2023-03-03T07:14:16.296Z,71.25
2023-03-03T07:16:43.506Z,67.32
2023-03-03T07:19:36.996Z,72.95
2023-03-03T07:22:16.145Z,77.57
2023-03-03T07:24:44.352Z,66.43
2023-03-03T07:27:20.346Z,69.95
2023-03-03T07:29:48.009Z,73.38
2023-03-03T07:32:35.297Z,68.72
2023-03-03T07:35:02.955Z,68.13
2023-03-03T07:37:32.437Z,70.82
2023-03-03T07:40:00.778Z,71.15
2023-03-03T07:42:35.486Z,69.30
2023-03-03T07:45:04.175Z,77.63
2023-03-03T07:47:32.224Z,77.15
2023-03-03T07:50:01.438Z,81.00
2023-03-03T07:52:29.830Z,71.20
2023-03-03T07:54:58.736Z,73.72
2023-03-03T07:57:28.659Z,74.63
2023-03-03T08:00:01.480Z,73.97
2023-03-03T08:02:57.996Z,73.63
2023-03-03T08:05:35.924Z,71.75
2023-03-03T08:08:16.209Z,75.80
2023-03-03T08:10:53.965Z,73.28
2023-03-03T08:13:25.211Z,75.82
2023-03-03T08:16:03.526Z,73.03
2023-03-03T08:18:36.122Z,72.65
2023-03-03T08:21:13.632Z,74.97
2023-03-03T08:23:40.899Z,68.57
2023-03-03T08:26:08.003Z,71.85
2023-03-03T08:28:35.115Z,74.00
2023-03-03T08:31:16.409Z,74.45
2023-03-03T08:33:47.458Z,68.63
2023-03-03T08:36:14.561Z,66.78
2023-03-03T08:38:41.661Z,71.53
2023-03-03T08:41:08.766Z,77.55
2023-03-03T08:43:35.875Z,69.97
2023-03-03T08:46:05.367Z,68.47
2023-03-03T08:48:33.091Z,65.97
2023-03-03T08:51:00.408Z,69.82
2023-03-03T08:53:27.950Z,69.28
2023-03-03T08:55:55.185Z,73.35
2023-03-03T08:58:33.510Z,67.05
2023-03-03T09:01:01.998Z,62.90
2023-03-03T09:03:29.835Z,69.03
2023-03-03T09:05:56.958Z,72.40
2023-03-03T09:08:24.023Z,67.18
2023-03-03T09:10:51.124Z,60.63
2023-03-03T09:13:19.256Z,63.30
2023-03-03T09:15:46.717Z,68.97
2023-03-03T09:18:16.888Z,65.72
2023-03-03T09:20:45.456Z,67.07
2023-03-03T09:23:24.355Z,64.82
2023-03-03T09:25:52.164Z,64.82
2023-03-03T09:28:23.612Z,63.03
2023-03-03T09:30:52.455Z,64.38
2023-03-03T09:33:38.106Z,71.57
2023-03-03T09:36:28.410Z,69.85
2023-03-03T09:38:58.759Z,65.65
2023-03-03T09:41:42.491Z,65.75
2023-03-03T09:44:28.291Z,72.53
2023-03-03T09:47:04.472Z,63.83
2023-03-03T09:49:47.749Z,66.70
2023-03-03T09:52:16.099Z,68.50
2023-03-03T09:54:43.089Z,73.53
2023-03-03T09:57:12.879Z,68.50
2023-03-03T09:59:48.174Z,61.50
2023-03-03T10:02:41.491Z,70.57
2023-03-03T10:05:26.495Z,64.97
2023-03-03T10:07:59.776Z,63.83
2023-03-03T10:10:26.759Z,66.90
2023-03-03T10:13:06.139Z,66.05
2023-03-03T10:15:33.239Z,63.17
2023-03-03T10:18:19.009Z,68.18
2023-03-03T10:21:15.439Z,62.08
2023-03-03T10:23:48.572Z,68.43
2023-03-03T10:26:43.795Z,65.50
2023-03-03T10:29:33.042Z,68.80
2023-03-03T10:32:18.645Z,64.88
2023-03-03T10:35:00.818Z,65.93
2023-03-03T10:37:48.135Z,71.75
2023-03-03T10:40:24.166Z,65.93
2023-03-03T10:43:00.590Z,60.35
2023-03-03T10:45:35.080Z,63.97
2023-03-03T10:48:08.412Z,67.03
2023-03-03T10:50:51.920Z,65.30
2023-03-03T10:53:18.991Z,61.67
2023-03-03T10:55:54.666Z,63.08
2023-03-03T10:58:21.794Z,61.63
2023-03-03T11:01:24.814Z,65.43
2023-03-03T11:04:01.334Z,66.53
2023-03-03T11:06:40.630Z,60.65
2023-03-03T11:09:08.144Z,67.80
2023-03-03T11:11:44.785Z,68.22
2023-03-03T11:14:22.583Z,66.30
2023-03-03T11:17:00.944Z,60.53
2023-03-03T11:19:55.091Z,67.03
2023-03-03T11:22:28.417Z,48.58
2023-03-03T11:25:22.102Z,64.80
2023-03-03T11:28:02.319Z,48.90
2023-03-03T11:30:35.666Z,62.40
2023-03-03T11:33:21.734Z,65.45
2023-03-03T11:35:59.068Z,67.57
2023-03-03T11:38:38.633Z,63.83
2023-03-03T11:41:20.773Z,62.53
2023-03-03T11:44:08.309Z,61.95
2023-03-03T11:46:38.226Z,60.67
2023-03-03T11:49:07.502Z,70.30
2023-03-03T11:51:43.620Z,61.72
2023-03-03T11:54:11.028Z,63.53
2023-03-03T11:56:40.859Z,65.22
2023-03-03T11:59:30.100Z,62.33
2023-03-03T12:01:58.177Z,65.65
2023-03-03T12:04:31.262Z,65.25
2023-03-03T12:07:19.425Z,67.23
2023-03-03T12:10:00.185Z,62.47
2023-03-03T12:12:30.381Z,64.80
2023-03-03T12:14:57.483Z,70.25
2023-03-03T12:17:43.340Z,61.08
2023-03-03T12:20:23.036Z,62.75
2023-03-03T12:23:06.722Z,59.42
2023-03-03T12:25:38.103Z,68.80
2023-03-03T12:28:22.133Z,67.38
2023-03-03T12:30:58.391Z,66.72
2023-03-03T12:33:28.783Z,65.80
2023-03-03T12:36:14.327Z,67.13
2023-03-03T12:38:43.793Z,58.95
2023-03-03T12:41:27.794Z,60.47
2023-03-03T12:44:07.090Z,59.58
2023-03-03T12:46:52.414Z,61.97
2023-03-03T12:49:20.006Z,61.90
2023-03-03T12:51:58.923Z,67.15
2023-03-03T12:54:28.761Z,59.22
2023-03-03T12:56:57.129Z,59.92
2023-03-03T12:59:45.298Z,63.08
2023-03-03T13:02:30.722Z,61.80
2023-03-03T13:05:03.037Z,63.33
2023-03-03T13:07:39.180Z,69.97
2023-03-03T13:10:17.682Z,59.25
2023-03-03T13:12:52.080Z,70.15
2023-03-03T13:15:31.659Z,63.35
2023-03-03T13:18:11.515Z,60.42
2023-03-03T13:20:56.323Z,58.30
2023-03-03T13:23:38.131Z,64.22
2023-03-03T13:26:05.188Z,60.72
2023-03-03T13:28:37.767Z,57.20
2023-03-03T13:31:25.128Z,61.38
2023-03-03T13:33:56.311Z,61.35
2023-03-03T13:36:25.913Z,56.65
2023-03-03T13:38:55.213Z,59.17
2023-03-03T13:41:30.319Z,62.10
2023-03-03T13:44:02.702Z,57.97
2023-03-03T13:46:35.783Z,59.67
2023-03-03T13:49:14.687Z,51.03
2023-03-03T13:51:49.373Z,56.88
2023-03-03T13:54:25.513Z,65.93
2023-03-03T13:57:02.878Z,60.58
2023-03-03T13:59:40.128Z,51.80
2023-03-03T14:02:35.678Z,58.38
2023-03-03T14:05:06.591Z,53.63
2023-03-03T14:07:33.587Z,52.63
2023-03-03T14:10:22.148Z,55.53
2023-03-03T14:12:49.150Z,53.83
2023-03-03T14:15:17.314Z,51.35
2023-03-03T14:17:57.694Z,53.58
2023-03-03T14:20:32.421Z,52.90
2023-03-03T14:23:04.255Z,47.35
2023-03-03T14:25:54.764Z,50.60
2023-03-03T14:28:23.700Z,47.78
2023-03-03T14:30:52.337Z,48.38
2023-03-03T14:33:22.046Z,49.10
2023-03-03T14:35:49.725Z,48.92
2023-03-03T14:38:24.505Z,47.10
2023-03-03T14:41:07.098Z,48.97
2023-03-03T14:43:36.741Z,52.47
2023-03-03T14:46:18.870Z,46.83
2023-03-03T14:48:52.541Z,43.60
2023-03-03T14:51:28.858Z,51.58
2023-03-03T14:53:57.344Z,50.17
2023-03-03T14:56:39.302Z,49.83
2023-03-03T14:59:15.358Z,46.33
2023-03-03T15:01:42.784Z,46.88
2023-03-03T15:04:12.867Z,47.45
2023-03-03T15:06:47.002Z,47.35
2023-03-03T15:09:43.060Z,45.83
2023-03-03T15:12:24.448Z,43.85
2023-03-03T15:14:52.897Z,46.65
2023-03-03T15:17:25.328Z,44.65
2023-03-03T15:20:32.370Z,46.60
2023-03-03T15:23:05.314Z,43.90
2023-03-03T15:25:43.510Z,44.13
2023-03-03T15:28:30.374Z,47.03
2023-03-03T15:31:20.401Z,41.28
2023-03-03T15:33:47.472Z,47.70
2023-03-03T15:36:17.560Z,47.40
2023-03-03T15:38:49.255Z,42.60
2023-03-03T15:41:16.268Z,44.42
2023-03-03T15:44:06.715Z,50.38
2023-03-03T15:46:46.086Z,47.53
2023-03-03T15:49:22.182Z,47.65
2023-03-03T15:52:03.727Z,49.17
2023-03-03T15:54:42.954Z,47.40
2023-03-03T15:57:18.856Z,47.95
2023-03-03T15:59:53.603Z,49.20
2023-03-03T16:02:32.691Z,50.70
2023-03-03T16:05:03.806Z,48.50
2023-03-03T16:07:49.410Z,48.08
2023-03-03T16:10:21.733Z,43.63
2023-03-03T16:12:51.826Z,46.30
2023-03-03T16:15:26.345Z,50.53
2023-03-03T16:18:02.253Z,52.10
2023-03-03T16:20:47.678Z,58.65
2023-03-03T16:23:14.711Z,54.72
2023-03-03T16:25:57.112Z,51.22
2023-03-03T16:28:33.109Z,53.90
2023-03-03T16:31:03.286Z,48.45
2023-03-03T16:33:36.171Z,52.03
2023-03-03T16:36:06.995Z,51.25
2023-03-03T16:38:45.197Z,53.35
2023-03-03T16:41:20.251Z,51.28
2023-03-03T16:43:59.861Z,56.45
2023-03-03T16:46:35.028Z,54.78
2023-03-03T16:49:09.651Z,50.78
2023-03-03T16:51:39.786Z,58.40
2023-03-03T16:54:12.313Z,57.47
2023-03-03T16:56:49.418Z,59.45
2023-03-03T16:59:35.221Z,55.88
2023-03-03T17:02:07.294Z,57.92
2023-03-03T17:04:37.226Z,60.10
2023-03-03T17:07:15.981Z,63.28
2023-03-03T17:09:49.153Z,58.00
2023-03-03T17:12:18.980Z,62.55
2023-03-03T17:14:54.839Z,57.53
2023-03-03T17:17:37.956Z,58.17
2023-03-03T17:20:14.163Z,67.38
2023-03-03T17:22:59.728Z,60.90
2023-03-03T17:25:33.370Z,63.15
2023-03-03T17:28:19.016Z,58.70
2023-03-03T17:30:52.167Z,65.88
2023-03-03T17:33:24.997Z,65.85
2023-03-03T17:35:52.197Z,66.20
2023-03-03T17:38:37.889Z,63.53
2023-03-03T17:41:22.733Z,59.78
2023-03-03T17:43:57.540Z,63.28
2023-03-03T17:46:34.386Z,64.75
2023-03-03T17:49:20.224Z,65.05
2023-03-03T17:52:08.883Z,63.25
2023-03-03T17:54:38.810Z,65.95
2023-03-03T17:57:11.700Z,63.25
2023-03-03T17:59:50.729Z,62.67
2023-03-03T18:02:30.379Z,62.30
2023-03-03T18:05:24.167Z,69.18
2023-03-03T18:08:03.079Z,66.60
2023-03-03T18:10:49.326Z,69.88
2023-03-03T18:13:39.415Z,66.32
2023-03-03T18:16:21.475Z,67.28
2023-03-03T18:19:07.130Z,70.43
2023-03-03T18:21:49.418Z,74.75
2023-03-03T18:24:25.407Z,74.70
2023-03-03T18:26:55.920Z,74.97
2023-03-03T18:29:27.842Z,72.22
2023-03-03T18:31:57.742Z,75.00
2023-03-03T18:34:38.997Z,77.68
2023-03-03T18:37:11.224Z,79.75
2023-03-03T18:39:40.971Z,73.88
2023-03-03T18:42:16.987Z,77.85
2023-03-03T18:44:50.090Z,75.97
2023-03-03T18:47:17.452Z,73.07
2023-03-03T18:49:47.622Z,74.95
2023-03-03T18:52:18.687Z,77.53
2023-03-03T18:54:59.467Z,72.43
2023-03-03T18:57:26.527Z,72.70
2023-03-03T18:59:55.553Z,71.55
2023-03-03T19:02:25.595Z,74.60
2023-03-03T19:04:57.006Z,71.22
2023-03-03T19:07:32.842Z,76.38
2023-03-03T19:10:02.543Z,78.55
2023-03-03T19:12:48.141Z,76.63
2023-03-03T19:15:35.383Z,80.85
2023-03-03T19:18:06.017Z,79.38
2023-03-03T19:20:41.264Z,74.97
2023-03-03T19:23:16.499Z,78.47
2023-03-03T19:25:43.674Z,79.78
2023-03-03T19:28:36.507Z,76.18
2023-03-03T19:31:29.940Z,80.60
2023-03-03T19:34:06.346Z,53.92
2023-03-03T19:36:52.253Z,78.80
2023-03-03T19:39:28.114Z,76.90
2023-03-03T19:42:21.321Z,78.03
2023-03-03T19:45:00.351Z,76.40
2023-03-03T19:47:37.086Z,89.50
2023-03-03T19:50:10.913Z,77.93
2023-03-03T19:55:23.771Z,80.53
2023-03-03T19:57:55.968Z,73.47
2023-03-03T20:00:43.281Z,76.07
2023-03-03T20:03:10.252Z,81.05
2023-03-03T20:05:40.181Z,80.90
2023-03-03T20:08:14.723Z,80.55
2023-03-03T20:10:44.828Z,80.72
2023-03-03T20:13:23.791Z,79.32
2023-03-03T20:15:53.769Z,80.32
2023-03-03T20:18:20.873Z,84.43
2023-03-03T20:21:06.487Z,80.40
2023-03-03T20:23:40.381Z,79.40
2023-03-03T20:26:10.281Z,80.32
2023-03-03T20:28:46.504Z,84.35
2023-03-03T20:31:16.330Z,83.57
2023-03-03T20:34:12.871Z,87.47
2023-03-03T20:36:51.898Z,79.93
2023-03-03T20:39:39.229Z,86.18
2023-03-03T20:42:21.311Z,77.47
2023-03-03T20:45:02.220Z,82.88
2023-03-03T20:47:48.925Z,79.85
2023-03-03T20:50:21.919Z,87.18
2023-03-03T20:53:05.309Z,82.13
2023-03-03T20:55:42.939Z,88.47
2023-03-03T20:58:15.854Z,88.85
2023-03-03T21:00:56.526Z,85.93
2023-03-03T21:03:32.429Z,92.88
2023-03-03T21:06:04.047Z,85.47
2023-03-03T21:08:42.057Z,90.40
2023-03-03T21:11:09.867Z,84.60
2023-03-03T21:13:44.243Z,90.47
2023-03-03T21:16:17.484Z,92.78
2023-03-03T21:18:56.891Z,78.15
2023-03-03T21:21:24.015Z,95.10
2023-03-03T21:23:51.286Z,85.15
2023-03-03T21:26:36.861Z,94.72
2023-03-03T21:29:03.919Z,86.20
2023-03-03T21:31:44.134Z,88.20
2023-03-03T21:34:30.110Z,86.93
2023-03-03T21:36:58.734Z,91.90
2023-03-03T21:39:28.072Z,90.90
2023-03-03T21:42:01.252Z,94.78
2023-03-03T21:44:37.034Z,93.85
2023-03-03T21:47:04.883Z,99.85
2023-03-03T21:49:31.882Z,89.88
2023-03-03T21:51:59.969Z,92.55
2023-03-03T21:54:27.203Z,87.30
2023-03-03T21:56:54.382Z,92.80
2023-03-03T21:59:21.568Z,97.70
2023-03-03T22:01:48.586Z,97.75
2023-03-03T22:04:15.795Z,93.93
2023-03-03T22:06:42.995Z,91.75
2023-03-03T22:09:10.351Z,93.78
2023-03-03T22:11:38.175Z,93.72
2023-03-03T22:14:05.222Z,85.38
2023-03-03T22:16:32.227Z,96.97
2023-03-03T22:19:01.708Z,85.78
2023-03-03T22:21:29.890Z,87.65
2023-03-03T22:23:57.083Z,96.53
2023-03-03T22:26:24.527Z,88.45
2023-03-03T22:28:51.621Z,86.40
2023-03-03T22:31:19.904Z,99.72
2023-03-03T22:33:47.899Z,94.38
2023-03-03T22:36:15.931Z,92.15
2023-03-03T22:38:43.026Z,96.47
2023-03-03T22:41:10.036Z,94.45
2023-03-03T22:43:37.164Z,96.93
2023-03-03T22:46:04.229Z,94.45
2023-03-03T22:48:31.985Z,95.38
2023-03-03T22:50:59.040Z,96.85
2023-03-03T22:53:26.413Z,96.18
2023-03-03T22:55:53.649Z,104.82
2023-03-03T22:58:21.357Z,96.95
2023-03-03T23:00:48.973Z,102.53
2023-03-03T23:03:16.642Z,96.07
2023-03-03T23:05:44.189Z,96.32
2023-03-03T23:08:13.341Z,100.60
2023-03-03T23:10:40.528Z,101.57
2023-03-03T23:13:08.308Z,106.57
2023-03-03T23:15:35.615Z,104.93
2023-03-03T23:18:03.060Z,108.18
2023-03-03T23:20:31.482Z,103.53
2023-03-03T23:22:58.775Z,97.50
2023-03-03T23:25:26.261Z,101.53
2023-03-03T23:27:53.791Z,104.55
2023-03-03T23:30:21.936Z,109.43
2023-03-03T23:32:49.240Z,106.60
2023-03-03T23:35:16.327Z,96.35
2023-03-03T23:37:43.353Z,110.25
2023-03-03T23:40:10.771Z,104.47
2023-03-03T23:42:37.774Z,101.82
2023-03-03T23:45:05.060Z,104.10
2023-03-03T23:47:32.155Z,100.05
2023-03-03T23:49:59.235Z,90.97
2023-03-03T23:52:26.324Z,109.10
2023-03-03T23:54:53.401Z,104.35
2023-03-03T23:57:20.562Z,100.75
2023-03-03T23:59:47.663Z,104.20
